createdAt,value
2024-02-11T00:00:38.833Z,10.40
2024-02-11T00:03:40.826Z,9.90
2024-02-11T00:06:42.605Z,10.40
2024-02-11T00:09:44.302Z,10.60
2024-02-11T00:12:46.084Z,9.90
2024-02-11T00:15:47.673Z,12.00
2024-02-11T00:18:49.797Z,10.60
2024-02-11T00:21:51.573Z,9.80
2024-02-11T00:24:56.463Z,11.80
2024-02-11T00:27:59.919Z,10.50
2024-02-11T00:31:05.165Z,10.30
2024-02-11T00:34:06.958Z,12.40
2024-02-11T00:37:11.751Z,11.20
2024-02-11T00:40:14.009Z,10.20
2024-02-11T00:43:18.908Z,10.60
2024-02-11T00:46:24.753Z,9.70
2024-02-11T00:49:26.366Z,10.60
2024-02-11T00:52:28.084Z,10.30
2024-02-11T00:55:29.949Z,10.20
2024-02-11T00:58:34.243Z,10.40
2024-02-11T01:01:36.165Z,10.10
2024-02-11T01:04:40.565Z,10.30
2024-02-11T01:07:44.071Z,10.40
2024-02-11T01:10:45.811Z,8.90
2024-02-11T01:13:47.604Z,12.80
2024-02-11T01:16:49.316Z,10.30
2024-02-11T01:19:51.434Z,10.40
2024-02-11T01:22:55.879Z,10.30
2024-02-11T01:25:57.714Z,10.60
2024-02-11T01:28:59.391Z,10.40
2024-02-11T01:32:01.272Z,10.40
2024-02-11T01:35:03.014Z,10.60
2024-02-11T01:38:07.286Z,10.60
2024-02-11T01:41:09.008Z,10.40
2024-02-11T01:44:11.131Z,10.60
2024-02-11T01:47:13.014Z,11.80
2024-02-11T01:50:17.945Z,10.50
2024-02-11T01:53:21.888Z,10.20
2024-02-11T01:56:25.326Z,10.10
2024-02-11T01:59:31.362Z,10.20
2024-02-11T02:02:33.369Z,10.30
2024-02-11T02:05:35.047Z,10.30
2024-02-11T02:08:36.759Z,10.50
2024-02-11T02:11:41.311Z,10.30
2024-02-11T02:14:43.024Z,11.80
2024-02-11T02:17:47.095Z,11.30
2024-02-11T02:20:48.785Z,10.10
2024-02-11T02:23:50.705Z,10.30
2024-02-11T02:26:52.270Z,10.10
2024-02-11T02:29:53.854Z,10.20
2024-02-11T02:32:55.568Z,10.10
2024-02-11T02:35:57.166Z,10.80
2024-02-11T02:38:58.829Z,9.90
2024-02-11T02:42:00.763Z,10.40
2024-02-11T02:45:02.431Z,11.00
2024-02-11T02:48:05.658Z,10.50
2024-02-11T02:51:07.402Z,10.60
2024-02-11T02:54:09.020Z,10.70
2024-02-11T02:57:12.870Z,10.50
2024-02-11T03:00:17.726Z,10.50
2024-02-11T03:03:19.968Z,10.90
2024-02-11T03:06:21.703Z,10.70
2024-02-11T03:09:25.500Z,10.40
2024-02-11T03:12:27.162Z,10.70
2024-02-11T03:15:29.426Z,10.70
2024-02-11T03:18:31.130Z,10.30
2024-02-11T03:21:34.763Z,11.10
2024-02-11T03:24:38.707Z,12.30
2024-02-11T03:27:40.344Z,10.50
2024-02-11T03:30:41.939Z,10.40
2024-02-11T03:33:43.657Z,10.90
2024-02-11T03:36:45.281Z,10.90
2024-02-11T03:39:50.261Z,10.60
2024-02-11T03:42:52.498Z,12.50
2024-02-11T03:45:54.067Z,10.70
2024-02-11T03:48:59.462Z,11.10
2024-02-11T03:52:01.182Z,10.50
2024-02-11T03:55:07.225Z,10.70
2024-02-11T03:58:09.337Z,11.70
2024-02-11T04:01:11.179Z,10.80
2024-02-11T04:04:14.141Z,12.40
2024-02-11T04:07:15.790Z,10.20
2024-02-11T04:10:23.553Z,10.60
2024-02-11T04:13:26.753Z,10.50
2024-02-11T04:16:29.349Z,10.30
2024-02-11T04:19:33.513Z,10.50
2024-02-11T04:22:35.325Z,10.60
2024-02-11T04:25:37.894Z,10.60
2024-02-11T04:28:40.515Z,10.40
2024-02-11T04:31:42.713Z,10.50
2024-02-11T04:34:45.087Z,10.70
2024-02-11T04:37:50.717Z,10.70
2024-02-11T04:40:53.038Z,10.70
2024-02-11T04:43:56.230Z,10.60
2024-02-11T04:47:01.561Z,10.40
2024-02-11T04:50:05.830Z,10.60
2024-02-11T04:53:09.911Z,10.90
2024-02-11T04:56:12.516Z,10.80
2024-02-11T04:59:16.380Z,10.50
2024-02-11T05:02:19.170Z,10.60
2024-02-11T05:05:30.333Z,10.00
2024-02-11T05:08:32.055Z,10.20
2024-02-11T05:11:34.137Z,10.60
2024-02-11T05:14:36.138Z,10.60
2024-02-11T05:17:39.445Z,10.50
2024-02-11T05:20:42.557Z,10.30
2024-02-11T05:23:48.251Z,12.30
2024-02-11T05:26:50.243Z,10.40
2024-02-11T05:29:51.879Z,10.60
2024-02-11T05:32:55.156Z,10.30
2024-02-11T05:35:56.915Z,10.10
2024-02-11T05:38:58.662Z,13.00
2024-02-11T05:42:00.839Z,11.10
2024-02-11T05:45:02.471Z,11.00
2024-02-11T05:48:04.507Z,12.10
2024-02-11T05:51:06.297Z,10.90
2024-02-11T05:54:08.025Z,11.00
2024-02-11T05:57:10.933Z,11.00
2024-02-11T06:00:14.978Z,11.10
2024-02-11T06:03:21.583Z,11.20
2024-02-11T06:06:24.548Z,10.20
2024-02-11T06:09:26.272Z,10.70
2024-02-11T06:12:27.828Z,10.50
2024-02-11T06:15:30.278Z,10.80
2024-02-11T06:18:31.876Z,11.10
2024-02-11T06:21:33.460Z,10.70
2024-02-11T06:24:35.181Z,10.50
2024-02-11T06:27:40.201Z,11.00
2024-02-11T06:30:42.338Z,11.00
2024-02-11T06:33:44.665Z,10.90
2024-02-11T06:36:47.468Z,10.60
2024-02-11T06:39:50.127Z,10.60
2024-02-11T06:42:53.115Z,10.40
2024-02-11T06:45:54.742Z,10.60
2024-02-11T06:48:56.398Z,10.40
2024-02-11T06:51:58.426Z,10.10
2024-02-11T06:55:02.015Z,9.80
2024-02-11T06:58:03.797Z,9.60
2024-02-11T07:01:10.186Z,9.30
2024-02-11T07:04:13.592Z,9.10
2024-02-11T07:07:15.341Z,11.50
2024-02-11T07:10:16.990Z,8.70
2024-02-11T07:13:18.603Z,8.80
2024-02-11T07:16:20.239Z,8.90
2024-02-11T07:19:25.841Z,8.70
2024-02-11T07:22:27.419Z,8.60
2024-02-11T07:25:31.268Z,8.80
2024-02-11T07:28:32.900Z,8.80
2024-02-11T07:31:34.923Z,11.50
2024-02-11T07:34:38.106Z,9.00
2024-02-11T07:37:39.806Z,8.90
2024-02-11T07:40:43.004Z,8.30
2024-02-11T07:43:45.003Z,8.90
2024-02-11T07:46:46.917Z,8.80
2024-02-11T07:49:48.538Z,9.80
2024-02-11T07:52:50.525Z,11.00
2024-02-11T07:55:52.345Z,8.10
2024-02-11T07:58:54.099Z,8.60
2024-02-11T08:01:56.926Z,8.50
2024-02-11T08:04:59.173Z,8.90
2024-02-11T08:08:01.080Z,8.90
2024-02-11T08:11:02.870Z,9.00
2024-02-11T08:14:05.191Z,8.70
2024-02-11T08:17:06.981Z,8.80
2024-02-11T08:20:10.330Z,9.00
2024-02-11T08:23:12.163Z,8.90
2024-02-11T08:26:13.904Z,8.80
2024-02-11T08:29:15.627Z,8.50
2024-02-11T08:32:17.287Z,11.10
2024-02-11T08:35:21.865Z,9.30
2024-02-11T08:38:23.638Z,9.00
2024-02-11T08:41:25.220Z,9.00
2024-02-11T08:44:26.928Z,9.20
2024-02-11T08:47:28.838Z,8.90
2024-02-11T08:50:30.741Z,9.30
2024-02-11T08:53:33.457Z,8.60
2024-02-11T08:56:35.181Z,9.20
2024-02-11T08:59:42.911Z,8.70
2024-02-11T09:02:45.193Z,8.90
2024-02-11T09:05:47.396Z,9.20
2024-02-11T09:08:49.014Z,10.30
2024-02-11T09:11:50.667Z,9.20
2024-02-11T09:14:52.389Z,9.10
2024-02-11T09:17:54.419Z,9.10
2024-02-11T09:20:56.789Z,9.20
2024-02-11T09:23:58.462Z,9.60
2024-02-11T09:27:00.475Z,9.30
2024-02-11T09:30:02.175Z,9.10
2024-02-11T09:33:03.986Z,11.10
2024-02-11T09:36:09.118Z,9.50
2024-02-11T09:39:14.206Z,9.90
2024-02-11T09:42:17.411Z,9.70
2024-02-11T09:45:22.167Z,9.40
2024-02-11T09:48:25.069Z,9.20
2024-02-11T09:51:28.124Z,9.00
2024-02-11T09:54:32.182Z,9.40
2024-02-11T09:57:33.769Z,9.40
2024-02-11T10:00:36.127Z,9.40
2024-02-11T10:03:39.099Z,9.50
2024-02-11T10:06:44.041Z,9.20
2024-02-11T10:09:47.249Z,9.30
2024-02-11T10:12:50.284Z,9.40
2024-02-11T10:15:52.809Z,9.30
2024-02-11T10:18:56.158Z,9.40
2024-02-11T10:22:13.923Z,9.60
2024-02-11T10:25:23.892Z,9.50
2024-02-11T10:28:26.968Z,9.80
2024-02-11T10:31:30.522Z,9.70
2024-02-11T10:34:32.720Z,9.70
2024-02-11T10:37:46.164Z,10.10
2024-02-11T10:40:48.126Z,10.00
2024-02-11T10:43:53.611Z,9.80
2024-02-11T10:46:56.409Z,10.20
2024-02-11T10:49:58.454Z,10.40
2024-02-11T10:53:06.449Z,10.20
2024-02-11T10:56:10.772Z,10.30
2024-02-11T10:59:27.680Z,10.50
2024-02-11T11:02:35.194Z,10.60
2024-02-11T11:05:40.434Z,10.50
2024-02-11T11:08:44.082Z,10.70
2024-02-11T11:11:45.679Z,10.60
2024-02-11T11:14:50.348Z,10.50
2024-02-11T11:17:53.755Z,10.60
2024-02-11T11:20:58.364Z,10.70
2024-02-11T11:24:00.708Z,11.00
2024-02-11T11:27:04.313Z,10.90
2024-02-11T11:30:08.376Z,11.40
2024-02-11T11:33:10.606Z,11.20
2024-02-11T11:36:22.504Z,11.00
2024-02-11T11:39:28.484Z,11.00
2024-02-11T11:42:31.168Z,11.10
2024-02-11T11:45:34.067Z,10.70
2024-02-11T11:48:37.791Z,11.00
2024-02-11T11:51:40.126Z,11.30
2024-02-11T11:54:41.816Z,11.00
2024-02-11T11:57:44.357Z,11.20
2024-02-11T12:01:03.550Z,11.10
2024-02-11T12:04:05.925Z,11.20
2024-02-11T12:07:09.814Z,10.90
2024-02-11T12:10:14.344Z,11.30
2024-02-11T12:13:18.387Z,11.00
2024-02-11T12:16:21.349Z,10.80
2024-02-11T12:19:24.742Z,11.10
2024-02-11T12:22:26.689Z,11.00
2024-02-11T12:25:29.806Z,10.90
2024-02-11T12:28:33.830Z,11.10
2024-02-11T12:31:36.760Z,11.00
2024-02-11T12:34:39.362Z,10.90
2024-02-11T12:37:41.217Z,11.40
2024-02-11T12:40:43.103Z,11.20
2024-02-11T12:43:52.257Z,11.40
2024-02-11T12:46:54.100Z,11.30
2024-02-11T12:49:55.770Z,11.40
2024-02-11T12:52:58.091Z,11.60
2024-02-11T12:55:59.953Z,11.60
2024-02-11T12:59:01.548Z,11.70
2024-02-11T13:02:03.476Z,12.30
2024-02-11T13:05:06.689Z,11.90
2024-02-11T13:08:08.478Z,12.00
2024-02-11T13:11:11.329Z,11.70
2024-02-11T13:14:13.378Z,11.80
2024-02-11T13:17:15.004Z,11.50
2024-02-11T13:20:16.782Z,11.40
2024-02-11T13:23:18.884Z,11.40
2024-02-11T13:26:21.405Z,11.60
2024-02-11T13:29:23.153Z,11.70
2024-02-11T13:32:25.507Z,11.60
2024-02-11T13:35:27.639Z,11.80
2024-02-11T13:38:31.419Z,13.40
2024-02-11T13:41:33.138Z,11.50
2024-02-11T13:44:35.666Z,11.50
2024-02-11T13:47:38.095Z,11.60
2024-02-11T13:50:40.756Z,11.90
2024-02-11T13:53:43.386Z,11.70
2024-02-11T13:56:46.105Z,11.60
2024-02-11T13:59:49.163Z,11.90
2024-02-11T14:02:51.504Z,11.60
2024-02-11T14:05:54.313Z,11.30
2024-02-11T14:08:59.593Z,11.30
2024-02-11T14:12:01.821Z,11.00
2024-02-11T14:15:06.660Z,11.00
2024-02-11T14:18:12.410Z,11.60
2024-02-11T14:21:14.202Z,11.60
2024-02-11T14:24:15.977Z,11.30
2024-02-11T14:27:17.774Z,11.10
2024-02-11T14:30:19.851Z,11.20
2024-02-11T14:33:22.209Z,11.40
2024-02-11T14:36:23.930Z,11.30
2024-02-11T14:39:25.538Z,10.90
2024-02-11T14:42:27.448Z,11.10
2024-02-11T14:45:29.443Z,11.10
2024-02-11T14:48:31.210Z,11.30
2024-02-11T14:51:33.797Z,10.90
2024-02-11T14:54:35.637Z,10.80
2024-02-11T14:57:37.958Z,11.00
2024-02-11T15:00:41.013Z,11.70
2024-02-11T15:03:42.656Z,11.00
2024-02-11T15:06:44.327Z,11.00
2024-02-11T15:09:48.137Z,10.70
2024-02-11T15:12:50.116Z,11.30
2024-02-11T15:15:52.284Z,11.00
2024-02-11T15:18:54.336Z,11.30
2024-02-11T15:21:56.720Z,12.20
2024-02-11T15:24:58.787Z,10.60
2024-02-11T15:28:00.519Z,11.30
2024-02-11T15:31:02.923Z,10.90
2024-02-11T15:34:05.384Z,10.90
2024-02-11T15:37:09.402Z,11.60
2024-02-11T15:40:11.951Z,10.60
2024-02-11T15:43:14.952Z,10.60
2024-02-11T15:46:17.202Z,11.00
2024-02-11T15:49:22.182Z,12.10
2024-02-11T15:52:24.052Z,10.70
2024-02-11T15:55:26.265Z,10.50
2024-02-11T15:58:28.063Z,10.50
2024-02-11T16:01:30.467Z,10.80
2024-02-11T16:04:32.052Z,10.50
2024-02-11T16:07:34.195Z,10.50
2024-02-11T16:10:36.230Z,10.90
2024-02-11T16:13:40.532Z,10.50
2024-02-11T16:16:42.751Z,10.50
2024-02-11T16:19:44.557Z,10.90
2024-02-11T16:22:46.625Z,11.40
2024-02-11T16:25:48.343Z,10.50
2024-02-11T16:28:50.068Z,10.00
2024-02-11T16:31:51.899Z,10.50
2024-02-11T16:34:55.372Z,12.10
2024-02-11T16:37:58.081Z,10.30
2024-02-11T16:40:59.943Z,10.10
2024-02-11T16:44:01.842Z,10.10
2024-02-11T16:47:03.631Z,10.30
2024-02-11T16:50:07.064Z,10.10
2024-02-11T16:53:09.268Z,9.80
2024-02-11T16:56:17.629Z,9.40
2024-02-11T16:59:19.452Z,9.80
2024-02-11T17:02:21.188Z,9.50
2024-02-11T17:05:22.983Z,11.40
2024-02-11T17:08:24.636Z,9.10
2024-02-11T17:11:26.613Z,9.80
2024-02-11T17:14:29.097Z,10.20
2024-02-11T17:17:30.911Z,9.50
2024-02-11T17:20:32.821Z,9.80
2024-02-11T17:23:34.554Z,9.20
2024-02-11T17:26:36.290Z,9.70
2024-02-11T17:29:39.069Z,9.70
2024-02-11T17:32:48.325Z,9.40
2024-02-11T17:35:54.829Z,11.30
2024-02-11T17:38:56.588Z,9.60
2024-02-11T17:42:00.496Z,9.70
2024-02-11T17:45:02.078Z,9.40
2024-02-11T17:48:06.210Z,9.60
2024-02-11T17:51:09.115Z,9.50
2024-02-11T17:54:12.207Z,9.60
2024-02-11T17:57:13.788Z,9.20
2024-02-11T18:00:19.139Z,9.80
2024-02-11T18:03:22.180Z,9.50
2024-02-11T18:06:23.996Z,9.40
2024-02-11T18:09:25.706Z,9.20
2024-02-11T18:12:28.802Z,9.00
2024-02-11T18:15:31.617Z,9.10
2024-02-11T18:18:36.287Z,8.80
2024-02-11T18:21:38.244Z,9.00
2024-02-11T18:24:39.857Z,8.70
2024-02-11T18:27:41.731Z,8.80
2024-02-11T18:30:43.542Z,8.80
2024-02-11T18:33:46.022Z,8.80
2024-02-11T18:36:48.598Z,8.60
2024-02-11T18:39:51.239Z,8.60
2024-02-11T18:42:54.847Z,8.40
2024-02-11T18:45:56.481Z,8.40
2024-02-11T18:48:58.130Z,8.50
2024-02-11T18:51:59.687Z,8.70
2024-02-11T18:55:01.406Z,8.70
2024-02-11T18:58:05.096Z,8.70
2024-02-11T19:01:06.788Z,8.60
2024-02-11T19:04:08.567Z,8.30
2024-02-11T19:07:14.507Z,8.50
2024-02-11T19:10:18.725Z,8.80
2024-02-11T19:13:20.437Z,8.80
2024-02-11T19:16:22.367Z,9.80
2024-02-11T19:19:25.426Z,8.60
2024-02-11T19:22:29.094Z,8.40
2024-02-11T19:25:31.601Z,8.90
2024-02-11T19:28:33.497Z,8.50
2024-02-11T19:31:35.659Z,8.80
2024-02-11T19:34:37.911Z,8.50
2024-02-11T19:37:40.374Z,8.30
2024-02-11T19:40:43.339Z,8.30
2024-02-11T19:43:45.971Z,8.50
2024-02-11T19:46:48.120Z,8.50
2024-02-11T19:49:49.996Z,8.40
2024-02-11T19:52:52.572Z,8.30
2024-02-11T19:55:54.329Z,8.30
2024-02-11T19:58:56.208Z,8.30
2024-02-11T20:01:57.810Z,8.60
2024-02-11T20:04:59.769Z,8.40
2024-02-11T20:08:04.372Z,8.60
2024-02-11T20:11:09.431Z,8.30
2024-02-11T20:14:11.401Z,8.70
2024-02-11T20:17:13.503Z,8.50
2024-02-11T20:20:16.408Z,8.70
2024-02-11T20:23:22.402Z,8.80
2024-02-11T20:26:24.190Z,8.40
2024-02-11T20:29:25.858Z,8.40
2024-02-11T20:32:29.162Z,8.50
2024-02-11T20:35:30.955Z,8.60
2024-02-11T20:38:32.679Z,8.30
2024-02-11T20:41:34.785Z,8.80
2024-02-11T20:44:36.433Z,8.60
2024-02-11T20:47:40.419Z,8.50
2024-02-11T20:50:42.179Z,8.60
2024-02-11T20:53:45.324Z,8.70
2024-02-11T20:56:47.102Z,8.20
2024-02-11T20:59:49.158Z,8.50
2024-02-11T21:02:52.459Z,8.60
2024-02-11T21:05:54.666Z,8.60
2024-02-11T21:08:56.989Z,8.60
2024-02-11T21:11:58.588Z,8.70
2024-02-11T21:15:01.516Z,8.80
2024-02-11T21:18:03.784Z,8.50
2024-02-11T21:21:06.058Z,8.90
2024-02-11T21:24:12.268Z,8.50
2024-02-11T21:27:15.215Z,8.80
2024-02-11T21:30:17.416Z,8.80
2024-02-11T21:33:20.986Z,8.90
2024-02-11T21:36:22.705Z,9.00
2024-02-11T21:39:24.337Z,8.90
2024-02-11T21:42:25.896Z,8.60
2024-02-11T21:45:27.867Z,9.10
2024-02-11T21:48:29.586Z,9.20
2024-02-11T21:51:35.714Z,8.70
2024-02-11T21:54:38.404Z,9.10
2024-02-11T21:57:43.747Z,8.90
2024-02-11T22:00:45.465Z,8.90
2024-02-11T22:03:49.052Z,9.00
2024-02-11T22:06:50.824Z,9.00
2024-02-11T22:09:52.543Z,9.20
2024-02-11T22:12:54.318Z,9.20
2024-02-11T22:15:55.887Z,9.20
2024-02-11T22:19:00.156Z,8.90
2024-02-11T22:22:03.066Z,10.90
2024-02-11T22:25:05.006Z,8.70
2024-02-11T22:28:06.656Z,9.40
2024-02-11T22:31:08.248Z,9.00
2024-02-11T22:34:09.909Z,9.40
2024-02-11T22:37:14.434Z,9.40
2024-02-11T22:40:16.669Z,8.80
2024-02-11T22:43:21.085Z,9.60
2024-02-11T22:46:22.672Z,9.30
2024-02-11T22:49:25.075Z,9.50
2024-02-11T22:52:26.692Z,9.40
2024-02-11T22:55:28.264Z,9.00
2024-02-11T22:58:29.883Z,9.20
2024-02-11T23:01:31.471Z,9.50
2024-02-11T23:04:36.171Z,9.60
2024-02-11T23:07:37.767Z,8.80
2024-02-11T23:10:40.504Z,8.80
2024-02-11T23:13:42.187Z,8.80
2024-02-11T23:16:43.858Z,8.90
2024-02-11T23:19:45.446Z,8.90
2024-02-11T23:22:47.103Z,8.70
2024-02-11T23:25:48.799Z,8.60
2024-02-11T23:28:51.957Z,8.50
2024-02-11T23:31:53.785Z,8.40
2024-02-11T23:34:57.828Z,8.50
2024-02-11T23:37:59.473Z,8.80
2024-02-11T23:41:01.370Z,9.00
2024-02-11T23:44:03.094Z,8.90
2024-02-11T23:47:06.477Z,9.60
2024-02-11T23:50:10.255Z,9.10
2024-02-11T23:53:16.957Z,8.50
2024-02-11T23:56:18.824Z,8.70
2024-02-11T23:59:20.514Z,8.70
